Venice, Illinois
Current Conditions -  °F | °C
As of 8:53 AM on Thursday 23 Oct 2014 (Local Time) from KCPS Reporting Station
Clear Clear  
Wind Chill: 47°   Ceiling: Unl
Heat Index: 47°   Visibility: 10mi
Dew Point: 44°   Wind: 3mph
Humidity: 90%   Direction: 130°SE
Pressure: 30.22"   Gusts: NA
Location:  38.67°N, 90.17°W
Report Text: KCPS 231353Z 13003KT 10SM CLR 08/07 A3022 RMK AO2 SLP236 T00830067
Loading
Personal Weather Stations






























Interactive Weather Map
Tropical Storm Tracking
New forecast layout! Learn more

10-Day Weather Forecast

Advertisements
Track Severe Weather on mobile